Miami, Indiana
Current Conditions -  °F | °C
As of 11:58 PM on Thursday 30 Oct 2014 (Local Time) from KGUS Reporting Station
Broken Clouds Broken Clouds  
Wind Chill: 44°   Ceiling: 12000
Heat Index: 44°   Visibility: 10mi
Dew Point: 39°   Wind: 2mph
Humidity: 83%   Direction: 290°WNW
Pressure: 30.04"   Gusts: NA
Location:  40.61°N, 86.11°W
Report Text: KGUS 310358Z AUTO 29002KT 10SM BKN120 07/04 A3004 RMK AO2 SLP179 T00660039
Loading
Personal Weather Stations






























Interactive Weather Map
Tropical Storm Tracking
New forecast layout! Learn more

10-Day Weather Forecast

Advertisements
Track Severe Weather on mobile